Time;durP1;ratioP1;P1;durP2;ratioP2;P2;SDS_P1;SDS_P2;PMS_P1;PMS_P2;Temp;Humidity;BMP_temperature;BMP_pressure;BME280_temperature;BME280_humidity;BME280_pressure;Samples;Min_cycle;Max_cycle;Signal;HPM_P1;HPM_P2
2023/09/07 00:02:31;;;;;;;;;;;;;;;18.79;100.00;102086.78;5064410;28;20568;-81
2023/09/07 00:05:17;;;;;;;;;;;;;;;18.76;100.00;102095.03;5049414;28;19928;-82
2023/09/07 00:08:03;;;;;;;;;;;;;;;18.76;100.00;102095.03;5063056;28;20536;-82
2023/09/07 00:11:02;;;;;;;;;;;;;;;18.72;100.00;102090.81;5044300;28;19935;-82
2023/09/07 00:13:48;;;;;;;;;;;;;;;18.72;100.00;102085.44;5062650;28;19928;-82
2023/09/07 00:16:35;;;;;;;;;;;;;;;18.73;100.00;102084.47;5049183;28;19936;-83
2023/09/07 00:19:20;;;;;;;;;;;;;;;18.75;100.00;102084.38;5036882;28;20436;-81
2023/09/07 00:22:06;;;;;;;;;;;;;;;18.73;100.00;102087.16;5059271;28;21789;-82
2023/09/07 00:24:52;;;;;;;;;;;;;;;18.73;100.00;102089.84;5030863;28;19935;-82
2023/09/07 00:27:37;;;;;;;;;;;;;;;18.72;100.00;102088.13;5056825;28;20447;-82
2023/09/07 00:30:23;;;;;;;;;;;;;;;18.70;100.00;102090.88;5048923;28;20556;-81
2023/09/07 00:33:11;;;;;;;;;;;;;;;18.69;100.00;102091.00;5065510;28;19951;-83
2023/09/07 00:35:57;;;;;;;;;;;;;;;18.68;100.00;102089.28;5065984;28;19933;-82
2023/09/07 00:38:43;;;;;;;;;;;;;;;18.65;100.00;102089.44;5065800;28;19928;-83
2023/09/07 00:41:28;;;;;;;;;;;;;;;18.64;100.00;102085.03;5064344;28;20645;-82
2023/09/07 00:44:14;;;;;;;;;;;;;;;18.63;100.00;102094.06;5064983;28;20069;-82
2023/09/07 00:47:02;;;;;;;;;;;;;;;18.59;100.00;102083.50;5065690;28;20034;-82
2023/09/07 00:49:48;;;;;;;;;;;;;;;18.58;100.00;102079.09;5065167;28;19966;-82
2023/09/07 00:52:34;;;;;;;;;;;;;;;18.56;100.00;102086.38;5036338;28;19932;-82
2023/09/07 00:55:27;;;;;;;;;;;;;;;18.53;100.00;102085.69;5050602;28;20288;-82
2023/09/07 00:58:13;;;;;;;;;;;;;;;18.50;100.00;102086.72;5065349;28;19958;-81
2023/09/07 01:00:59;;;;;;;;;;;;;;;18.46;100.00;102080.69;5045393;28;20012;-82
2023/09/07 01:03:47;;;;;;;;;;;;;;;18.43;100.00;102085.38;5064558;28;19924;-82
2023/09/07 01:06:35;;;;;;;;;;;;;;;18.39;100.00;102075.78;5050068;28;20664;-82
2023/09/07 01:09:24;;;;;;;;;;;;;;;18.36;100.00;102076.81;5044130;28;20000;-82
2023/09/07 01:12:18;;;;;;;;;;;;;;;18.36;100.00;102065.25;5047877;28;19928;-82
2023/09/07 01:15:04;;;;;;;;;;;;;;;18.37;100.00;102069.66;5065134;28;19929;-83
2023/09/07 01:17:50;;;;;;;;;;;;;;;18.35;100.00;102077.78;5061219;28;20306;-81
2023/09/07 01:20:36;;;;;;;;;;;;;;;18.32;100.00;102069.94;5061181;28;20056;-82
2023/09/07 01:23:21;;;;;;;;;;;;;;;18.31;100.00;102071.72;5044002;28;19935;-82
2023/09/07 01:26:08;;;;;;;;;;;;;;;18.31;100.00;102069.06;5043182;28;20387;-81
2023/09/07 01:28:54;;;;;;;;;;;;;;;18.29;100.00;102075.44;5059312;28;19963;-81
2023/09/07 01:31:40;;;;;;;;;;;;;;;18.28;100.00;102079.09;5062756;28;19935;-81
2023/09/07 01:34:25;;;;;;;;;;;;;;;18.27;100.00;102070.22;5036950;28;21849;-82
2023/09/07 01:37:11;;;;;;;;;;;;;;;18.26;100.00;102063.09;5057262;28;19929;-82
2023/09/07 01:39:57;;;;;;;;;;;;;;;18.27;100.00;102069.34;5064689;28;19928;-81
2023/09/07 01:42:42;;;;;;;;;;;;;;;18.27;100.00;102070.22;5061413;28;19984;-81
2023/09/07 01:45:30;;;;;;;;;;;;;;;18.27;100.00;102059.47;5063027;28;19924;-81
2023/09/07 01:48:16;;;;;;;;;;;;;;;18.26;100.00;102068.44;5042761;28;19929;-81
2023/09/07 01:51:02;;;;;;;;;;;;;;;18.22;100.00;102069.59;5041332;28;19932;-82
2023/09/07 01:53:48;;;;;;;;;;;;;;;18.17;100.00;102074.38;5061448;28;19928;-81
2023/09/07 01:56:34;;;;;;;;;;;;;;;18.10;100.00;102068.50;5047371;28;20492;-82
2023/09/07 01:59:19;;;;;;;;;;;;;;;18.05;100.00;102076.78;5062132;28;20604;-82
2023/09/07 02:02:05;;;;;;;;;;;;;;;18.01;100.00;102072.56;5060415;28;19928;-83
2023/09/07 02:04:51;;;;;;;;;;;;;;;18.00;100.00;102070.84;5039322;28;20429;-82
2023/09/07 02:07:36;;;;;;;;;;;;;;;17.98;100.00;102067.34;5056241;28;20774;-82
2023/09/07 02:10:22;;;;;;;;;;;;;;;18.01;100.00;102074.34;5062382;28;19924;-81
2023/09/07 02:13:07;;;;;;;;;;;;;;;18.02;100.00;102070.72;5043168;28;20408;-81
2023/09/07 02:15:53;;;;;;;;;;;;;;;18.00;100.00;102073.50;5040170;28;19936;-82
2023/09/07 02:18:46;;;;;;;;;;;;;;;17.98;100.00;102075.38;5059842;28;19933;-82
2023/09/07 02:21:32;;;;;;;;;;;;;;;17.97;100.00;102078.19;5045170;28;19927;-82
2023/09/07 02:24:18;;;;;;;;;;;;;;;17.94;100.00;102073.88;5061970;28;19958;-82
2023/09/07 02:27:04;;;;;;;;;;;;;;;17.90;100.00;102073.16;5060454;28;21099;-84
2023/09/07 02:29:50;;;;;;;;;;;;;;;17.86;100.00;102071.59;5039974;28;20358;-82
2023/09/07 02:32:35;;;;;;;;;;;;;;;17.83;100.00;102070.91;5056710;28;20015;-81
2023/09/07 02:35:21;;;;;;;;;;;;;;;17.78;100.00;102082.75;5064445;28;19928;-82
2023/09/07 02:38:06;;;;;;;;;;;;;;;17.73;100.00;102074.13;5066061;28;20023;-82
2023/09/07 02:40:53;;;;;;;;;;;;;;;17.70;100.00;102078.81;5059614;28;19928;-83
2023/09/07 02:43:40;;;;;;;;;;;;;;;17.68;100.00;102069.97;5061610;28;19959;-82
2023/09/07 02:46:26;;;;;;;;;;;;;;;17.64;100.00;102070.16;5065789;28;19994;-83
2023/09/07 02:49:12;;;;;;;;;;;;;;;17.61;100.00;102073.00;5045874;28;20422;-82
2023/09/07 02:51:57;;;;;;;;;;;;;;;17.61;100.00;102082.84;5065726;28;19932;-82
2023/09/07 02:54:43;;;;;;;;;;;;;;;17.61;100.00;102074.81;5063895;28;19951;-82
2023/09/07 02:57:32;;;;;;;;;;;;;;;17.60;100.00;102083.81;5063991;28;19936;-83
2023/09/07 03:00:17;;;;;;;;;;;;;;;17.56;100.00;102076.88;5064618;28;20490;-83
2023/09/07 03:03:03;;;;;;;;;;;;;;;17.52;100.00;102076.19;5056426;28;19936;-83
2023/09/07 03:05:49;;;;;;;;;;;;;;;17.49;100.00;102076.38;5064861;28;19925;-81
2023/09/07 03:08:34;;;;;;;;;;;;;;;17.45;100.00;102075.69;5066378;28;20027;-82
2023/09/07 03:11:20;;;;;;;;;;;;;;;17.43;100.00;102085.59;5055114;28;19928;-82
2023/09/07 03:14:06;;;;;;;;;;;;;;;17.41;100.00;102079.47;5045175;28;20087;-81
2023/09/07 03:16:51;;;;;;;;;;;;;;;17.39;100.00;102078.69;5064203;28;20470;-82
2023/09/07 03:19:37;;;;;;;;;;;;;;;17.37;100.00;102083.25;5063504;28;20031;-81
2023/09/07 03:22:23;;;;;;;;;;;;;;;17.35;100.00;102079.78;5061999;28;19928;-82
2023/09/07 03:25:12;;;;;;;;;;;;;;;17.34;100.00;102078.06;5046731;28;20011;-82
2023/09/07 03:27:58;;;;;;;;;;;;;;;17.31;100.00;102083.56;5063551;28;19932;-83
2023/09/07 03:30:43;;;;;;;;;;;;;;;17.30;100.00;102079.19;5065182;28;20017;-82
2023/09/07 03:33:29;;;;;;;;;;;;;;;17.27;100.00;102069.50;5051964;28;19978;-83
2023/09/07 03:36:15;;;;;;;;;;;;;;;17.26;100.00;102069.59;5068997;28;20008;-82
2023/09/07 03:39:01;;;;;;;;;;;;;;;17.24;100.00;102069.69;5049746;28;19929;-83
2023/09/07 03:41:47;;;;;;;;;;;;;;;17.22;100.00;102071.59;5065310;28;20326;-82
2023/09/07 03:44:35;;;;;;;;;;;;;;;17.20;100.00;102068.97;5066572;28;20002;-82
2023/09/07 03:47:21;;;;;;;;;;;;;;;17.19;100.00;102077.09;5057038;28;19935;-83
2023/09/07 03:50:07;;;;;;;;;;;;;;;17.17;100.00;102066.47;5064981;28;20901;-83
2023/09/07 03:52:59;;;;;;;;;;;;;;;17.17;100.00;102074.47;5063652;28;20023;-82
2023/09/07 03:55:44;;;;;;;;;;;;;;;17.16;100.00;102078.09;5054968;28;19936;-82
2023/09/07 03:58:30;;;;;;;;;;;;;;;17.14;100.00;102069.31;5057685;28;19928;-82
2023/09/07 04:01:16;;;;;;;;;;;;;;;17.11;100.00;102074.84;5061581;28;19970;-81
2023/09/07 04:04:01;;;;;;;;;;;;;;;17.09;100.00;102061.53;5065768;28;19932;-82
2023/09/07 04:06:48;;;;;;;;;;;;;;;17.04;100.00;102066.25;5064080;28;22205;-82
2023/09/07 04:09:35;;;;;;;;;;;;;;;17.03;100.00;102066.34;5057768;28;19932;-83
2023/09/07 04:12:20;;;;;;;;;;;;;;;16.98;100.00;102063.88;5044089;28;19933;-83
2023/09/07 04:15:06;;;;;;;;;;;;;;;16.95;100.00;102059.56;5062848;28;19928;-83
2023/09/07 04:17:54;;;;;;;;;;;;;;;16.94;100.00;102060.50;5064955;28;20041;-82
2023/09/07 04:20:40;;;;;;;;;;;;;;;16.94;100.00;102065.00;5044160;28;19921;-82
2023/09/07 04:23:26;;;;;;;;;;;;;;;16.93;100.00;102057.91;5048850;28;20027;-82
2023/09/07 04:26:12;;;;;;;;;;;;;;;16.91;100.00;102058.00;5062451;28;19933;-81
2023/09/07 04:28:57;;;;;;;;;;;;;;;16.91;100.00;102058.00;5063250;28;19983;-83
2023/09/07 04:31:43;;;;;;;;;;;;;;;16.93;100.00;102055.22;5063723;28;19936;-82
2023/09/07 04:34:28;;;;;;;;;;;;;;;16.92;100.00;102059.75;5067364;28;19978;-82
2023/09/07 04:37:14;;;;;;;;;;;;;;;16.92;100.00;102069.56;5066561;28;19933;-82
2023/09/07 04:40:00;;;;;;;;;;;;;;;16.91;100.00;102071.38;5045256;28;19932;-82
2023/09/07 04:42:46;;;;;;;;;;;;;;;16.92;100.00;102067.75;5042393;28;19920;-82
2023/09/07 04:45:31;;;;;;;;;;;;;;;16.92;100.00;102072.22;5060254;28;20295;-82
2023/09/07 04:48:17;;;;;;;;;;;;;;;16.92;100.00;102073.13;5051064;28;19932;-81
2023/09/07 04:51:03;;;;;;;;;;;;;;;16.93;100.00;102082.84;5066351;28;20449;-83
2023/09/07 04:53:53;;;;;;;;;;;;;;;16.92;100.00;102085.59;5066899;28;19939;-82
2023/09/07 04:56:42;;;;;;;;;;;;;;;16.91;100.00;102079.41;5052342;28;20363;-82
2023/09/07 04:59:27;;;;;;;;;;;;;;;16.91;100.00;102074.06;5065840;28;19967;-82
2023/09/07 05:02:13;;;;;;;;;;;;;;;16.90;100.00;102080.34;5066263;28;19989;-81
2023/09/07 05:04:59;;;;;;;;;;;;;;;16.90;100.00;102079.47;5067356;28;19932;-81
2023/09/07 05:07:44;;;;;;;;;;;;;;;16.87;100.00;102085.84;5064894;28;20552;-83
2023/09/07 05:10:33;;;;;;;;;;;;;;;16.88;100.00;102084.06;5044958;28;19935;-81
2023/09/07 05:13:19;;;;;;;;;;;;;;;16.89;100.00;102077.75;5048351;28;19955;-82
2023/09/07 05:16:05;;;;;;;;;;;;;;;16.89;100.00;102096.47;5061648;28;19939;-81
2023/09/07 05:18:50;;;;;;;;;;;;;;;16.87;100.00;102093.88;5041427;28;19939;-82
2023/09/07 05:21:36;;;;;;;;;;;;;;;16.88;100.00;102092.09;5057350;28;19935;-81
2023/09/07 05:24:21;;;;;;;;;;;;;;;16.88;100.00;102095.59;5046754;28;20761;-81
2023/09/07 05:27:08;;;;;;;;;;;;;;;16.88;100.00;102092.94;5065167;28;20845;-81
2023/09/07 05:29:54;;;;;;;;;;;;;;;16.87;100.00;102085.84;5063874;28;19935;-81
2023/09/07 05:32:41;;;;;;;;;;;;;;;16.86;100.00;102092.16;5065182;28;19932;-83
2023/09/07 05:35:29;;;;;;;;;;;;;;;16.87;100.00;102098.34;5057144;28;19985;-82
2023/09/07 05:38:14;;;;;;;;;;;;;;;16.86;100.00;102100.19;5065997;28;19939;-82
2023/09/07 05:41:00;;;;;;;;;;;;;;;16.86;100.00;102107.31;5067237;28;20368;-82
2023/09/07 05:43:46;;;;;;;;;;;;;;;16.87;100.00;102107.25;5032125;28;20032;-82
2023/09/07 05:46:31;;;;;;;;;;;;;;;16.87;100.00;102109.03;5059060;28;19941;-81
2023/09/07 05:49:17;;;;;;;;;;;;;;;16.86;100.00;102110.88;5039834;28;19984;-81
2023/09/07 05:52:03;;;;;;;;;;;;;;;16.87;100.00;102109.91;5065310;28;19932;-81
2023/09/07 05:54:48;;;;;;;;;;;;;;;16.87;100.00;102115.28;5042236;28;19933;-82
2023/09/07 05:57:34;;;;;;;;;;;;;;;16.89;100.00;102117.88;5056782;28;19934;-81
2023/09/07 06:00:20;;;;;;;;;;;;;;;16.92;100.00;102115.91;5059031;28;19932;-82
2023/09/07 06:03:15;;;;;;;;;;;;;;;16.94;100.00;102116.69;5065188;28;19931;-82
2023/09/07 06:06:00;;;;;;;;;;;;;;;16.98;100.00;102117.38;5045975;28;19974;-81
2023/09/07 06:08:46;;;;;;;;;;;;;;;17.01;100.00;102117.25;5066291;28;19977;-81
2023/09/07 06:11:32;;;;;;;;;;;;;;;17.07;100.00;102124.09;5065559;28;20778;-82
2023/09/07 06:14:18;;;;;;;;;;;;;;;17.13;100.00;102126.44;5066760;28;20375;-81
2023/09/07 06:17:04;;;;;;;;;;;;;;;17.18;100.00;102124.41;5063377;28;19928;-80
2023/09/07 06:19:49;;;;;;;;;;;;;;;17.23;100.00;102133.03;5068241;28;19932;-80
2023/09/07 06:22:35;;;;;;;;;;;;;;;17.29;100.00;102129.19;5063942;28;20049;-81
2023/09/07 06:25:22;;;;;;;;;;;;;;;17.35;100.00;102138.69;5065593;28;20005;-84
2023/09/07 06:28:07;;;;;;;;;;;;;;;17.40;100.00;102127.72;5061706;28;19932;-79
2023/09/07 06:30:53;;;;;;;;;;;;;;;17.48;100.00;102130.84;5062540;28;19931;-80
2023/09/07 06:33:42;;;;;;;;;;;;;;;17.58;100.00;102133.88;5061770;28;19928;-80
2023/09/07 06:36:27;;;;;;;;;;;;;;;17.68;100.00;102128.88;5061574;28;19970;-80
2023/09/07 06:39:13;;;;;;;;;;;;;;;17.76;100.00;102129.34;5040496;28;20046;-81
2023/09/07 06:41:59;;;;;;;;;;;;;;;17.86;100.00;102135.91;5043640;28;20841;-80
2023/09/07 06:44:45;;;;;;;;;;;;;;;17.97;100.00;102131.75;5028019;28;20906;-80
2023/09/07 06:47:30;;;;;;;;;;;;;;;18.13;100.00;102138.00;5057264;28;19939;-79
2023/09/07 06:50:16;;;;;;;;;;;;;;;18.35;100.00;102135.91;5055056;28;19924;-79
2023/09/07 06:53:02;;;;;;;;;;;;;;;18.46;100.00;102136.13;5046281;28;19928;-79
2023/09/07 06:55:56;;;;;;;;;;;;;;;18.51;100.00;102135.88;5066720;28;19920;-79
2023/09/07 06:58:42;;;;;;;;;;;;;;;18.57;100.00;102138.16;5066141;28;20180;-80
2023/09/07 07:01:27;;;;;;;;;;;;;;;18.63;100.00;102134.28;5062546;28;19932;-80
2023/09/07 07:04:16;;;;;;;;;;;;;;;18.69;100.00;102136.59;5062925;28;20053;-80
2023/09/07 07:07:04;;;;;;;;;;;;;;;18.78;100.00;102144.09;5063959;28;20036;-79
2023/09/07 07:09:50;;;;;;;;;;;;;;;18.84;100.00;102135.66;5039979;28;20031;-83
2023/09/07 07:12:38;;;;;;;;;;;;;;;18.90;100.00;102138.94;5055624;28;20348;-81
2023/09/07 07:15:23;;;;;;;;;;;;;;;18.99;100.00;102141.94;5055567;28;19936;-81
2023/09/07 07:18:12;;;;;;;;;;;;;;;19.07;100.00;102143.31;5059533;28;19976;-82
2023/09/07 07:20:58;;;;;;;;;;;;;;;19.16;100.00;102144.56;5063280;28;20019;-81
2023/09/07 07:23:43;;;;;;;;;;;;;;;19.24;100.00;102144.97;5061962;28;20462;-82
2023/09/07 07:26:29;;;;;;;;;;;;;;;19.35;100.00;102150.50;5062301;28;20405;-81
2023/09/07 07:29:15;;;;;;;;;;;;;;;19.45;100.00;102148.09;5062348;28;19935;-82
2023/09/07 07:32:01;;;;;;;;;;;;;;;19.56;100.00;102146.59;5060427;28;19924;-83
2023/09/07 07:34:46;;;;;;;;;;;;;;;19.64;100.00;102147.81;5062728;28;19939;-82
2023/09/07 07:37:38;;;;;;;;;;;;;;;19.72;100.00;102146.47;5048079;28;20639;-79
2023/09/07 07:40:24;;;;;;;;;;;;;;;19.80;100.00;102146.84;5062699;28;20432;-81
2023/09/07 07:43:10;;;;;;;;;;;;;;;19.84;100.00;102153.75;5059651;28;19933;-80
2023/09/07 07:45:59;;;;;;;;;;;;;;;19.88;100.00;102155.25;5039547;28;19936;-81
2023/09/07 07:48:47;;;;;;;;;;;;;;;19.91;100.00;102144.31;5059813;28;19963;-81
2023/09/07 07:51:33;;;;;;;;;;;;;;;19.95;100.00;102145.88;5048878;28;20302;-81
2023/09/07 07:54:18;;;;;;;;;;;;;;;20.02;100.00;102148.16;5064491;28;21526;-82
2023/09/07 07:57:05;;;;;;;;;;;;;;;20.11;100.00;102149.38;5063881;28;19982;-81
2023/09/07 07:59:51;;;;;;;;;;;;;;;20.17;100.00;102149.88;5043646;28;19920;-81
2023/09/07 08:02:37;;;;;;;;;;;;;;;20.24;100.00;102150.31;5050026;28;20298;-82
2023/09/07 08:05:23;;;;;;;;;;;;;;;20.32;100.00;102147.97;5065686;28;19932;-82
2023/09/07 08:08:09;;;;;;;;;;;;;;;20.43;100.00;102144.56;5066814;28;19967;-82
2023/09/07 08:10:57;;;;;;;;;;;;;;;20.51;100.00;102141.34;5046118;28;21628;-82
2023/09/07 08:13:52;;;;;;;;;;;;;;;20.62;100.00;102137.94;5067097;28;19957;-81
2023/09/07 08:16:37;;;;;;;;;;;;;;;20.72;100.00;102133.66;5053074;28;19997;-82
2023/09/07 08:19:23;;;;;;;;;;;;;;;20.84;100.00;102133.78;5068364;28;19928;-81
2023/09/07 08:22:09;;;;;;;;;;;;;;;20.97;100.00;102126.59;5064313;28;19932;-82
2023/09/07 08:24:55;;;;;;;;;;;;;;;21.11;100.00;102127.47;5068051;28;20633;-81
2023/09/07 08:27:44;;;;;;;;;;;;;;;21.23;100.00;102126.59;5066279;28;19935;-82
2023/09/07 08:30:29;;;;;;;;;;;;;;;21.35;100.00;102124.84;5052436;28;19930;-80
2023/09/07 08:33:15;;;;;;;;;;;;;;;21.50;100.00;102122.03;5068892;28;20022;-82
2023/09/07 08:36:01;;;;;;;;;;;;;;;21.63;100.00;102122.03;5067558;28;20373;-82
2023/09/07 08:38:47;;;;;;;;;;;;;;;21.74;100.00;102119.44;5067843;28;19951;-80
2023/09/07 08:41:41;;;;;;;;;;;;;;;21.80;100.00;102124.34;5060939;28;20062;-81
2023/09/07 08:44:26;;;;;;;;;;;;;;;21.86;100.00;102123.06;5052070;28;19977;-81
2023/09/07 08:47:12;;;;;;;;;;;;;;;21.96;100.00;102124.09;5047125;28;19950;-82
2023/09/07 08:49:58;;;;;;;;;;;;;;;22.04;100.00;102123.53;5040692;28;20047;-82
2023/09/07 08:52:45;;;;;;;;;;;;;;;22.14;100.00;102123.69;5046679;28;20442;-82
2023/09/07 08:55:30;;;;;;;;;;;;;;;22.24;100.00;102110.38;5048555;28;19971;-81
2023/09/07 08:58:22;;;;;;;;;;;;;;;22.35;100.00;102121.19;5045012;28;19925;-81
2023/09/07 09:01:10;;;;;;;;;;;;;;;22.47;100.00;102113.16;5064759;28;20005;-81
2023/09/07 09:03:56;;;;;;;;;;;;;;;22.58;100.00;102120.47;5067484;28;19935;-81
2023/09/07 09:06:42;;;;;;;;;;;;;;;22.74;100.00;102112.91;5066246;28;20302;-80
2023/09/07 09:09:27;;;;;;;;;;;;;;;22.90;100.00;102107.19;5066949;28;20017;-80
2023/09/07 09:12:16;;;;;;;;;;;;;;;23.05;100.00;102104.25;5046531;28;20348;-81
2023/09/07 09:15:03;;;;;;;;;;;;;;;23.19;100.00;102109.41;5063717;28;20430;-82
2023/09/07 09:17:48;;;;;;;;;;;;;;;23.36;100.00;102109.06;5066840;28;19931;-81
2023/09/07 09:20:34;;;;;;;;;;;;;;;23.46;100.00;102101.94;5066482;28;20984;-81
2023/09/07 09:23:23;;;;;;;;;;;;;;;23.55;100.00;102103.91;5045376;28;20718;-80
2023/09/07 09:26:17;;;;;;;;;;;;;;;23.63;100.00;102092.44;5065243;28;19935;-82
2023/09/07 09:29:03;;;;;;;;;;;;;;;23.72;100.00;102093.53;5045247;28;20036;-80
2023/09/07 09:31:49;;;;;;;;;;;;;;;23.83;100.00;102095.34;5063795;28;19935;-80
2023/09/07 09:34:35;;;;;;;;;;;;;;;23.89;100.00;102097.53;5037379;28;19927;-83
2023/09/07 09:37:20;;;;;;;;;;;;;;;23.98;100.00;102096.78;5048188;28;19985;-81
2023/09/07 09:40:10;;;;;;;;;;;;;;;24.04;100.00;102097.25;5064077;28;19940;-81
2023/09/07 09:42:55;;;;;;;;;;;;;;;24.07;99.32;102091.63;5067281;28;20211;-82
2023/09/07 09:45:47;;;;;;;;;;;;;;;24.05;99.62;102085.44;5041856;28;19936;-82
2023/09/07 09:48:32;;;;;;;;;;;;;;;24.05;99.38;102088.16;5029607;28;19928;-81
2023/09/07 09:51:21;;;;;;;;;;;;;;;24.04;99.74;102086.44;5053927;28;19935;-83
2023/09/07 09:54:07;;;;;;;;;;;;;;;24.06;100.00;102087.16;5045484;28;19932;-82
2023/09/07 09:56:53;;;;;;;;;;;;;;;24.05;100.00;102075.50;5044126;28;19928;-82
2023/09/07 09:59:39;;;;;;;;;;;;;;;24.06;99.33;102082.66;5065195;28;19940;-83
2023/09/07 10:02:26;;;;;;;;;;;;;;;24.08;98.80;102074.41;5061916;28;20410;-81
2023/09/07 10:05:11;;;;;;;;;;;;;;;24.05;98.34;102071.91;5059217;28;19934;-82
2023/09/07 10:08:05;;;;;;;;;;;;;;;24.05;98.10;102071.91;5044891;28;19928;-82
2023/09/07 10:10:54;;;;;;;;;;;;;;;24.05;99.01;102086.31;5046895;28;20023;-82
2023/09/07 10:13:40;;;;;;;;;;;;;;;24.05;97.09;102074.63;5065299;28;19928;-82
2023/09/07 10:16:27;;;;;;;;;;;;;;;24.08;99.07;102075.25;5066055;28;19932;-83
2023/09/07 10:19:19;;;;;;;;;;;;;;;24.11;98.83;102072.31;5065237;28;19935;-81
2023/09/07 10:22:05;;;;;;;;;;;;;;;24.12;97.20;102076.72;5048963;28;19928;-82
2023/09/07 10:24:59;;;;;;;;;;;;;;;24.15;96.65;102072.91;5065654;28;19924;-82
2023/09/07 10:27:45;;;;;;;;;;;;;;;24.14;95.46;102076.59;5048440;28;20023;-83
2023/09/07 10:30:32;;;;;;;;;;;;;;;24.17;95.54;102068.22;5058830;28;19939;-82
2023/09/07 10:33:21;;;;;;;;;;;;;;;24.19;94.98;102076.22;5057107;28;19986;-82
2023/09/07 10:36:07;;;;;;;;;;;;;;;24.25;95.96;102071.13;5046688;28;20647;-83
2023/09/07 10:38:53;;;;;;;;;;;;;;;24.26;93.23;102072.00;5043410;28;19959;-83
2023/09/07 10:41:42;;;;;;;;;;;;;;;24.30;93.77;102059.06;5057706;28;19921;-83
2023/09/07 10:44:28;;;;;;;;;;;;;;;24.34;91.63;102058.66;5043923;28;19920;-81
2023/09/07 10:47:14;;;;;;;;;;;;;;;24.40;92.57;102052.72;5065622;28;19932;-82
2023/09/07 10:50:00;;;;;;;;;;;;;;;24.47;91.38;102063.03;5042986;28;20383;-82
2023/09/07 10:52:45;;;;;;;;;;;;;;;24.50;90.86;102060.91;5061016;28;19996;-80
2023/09/07 10:55:38;;;;;;;;;;;;;;;24.51;90.28;102050.94;5060542;28;19996;-81
2023/09/07 10:58:30;;;;;;;;;;;;;;;24.54;90.21;102051.53;5054285;28;19924;-83
2023/09/07 11:01:16;;;;;;;;;;;;;;;24.59;89.24;102044.84;5063736;28;19963;-82
2023/09/07 11:04:03;;;;;;;;;;;;;;;24.63;90.52;102043.59;5064052;28;19954;-82
2023/09/07 11:06:55;;;;;;;;;;;;;;;24.68;90.44;102049.50;5063100;28;19932;-83
2023/09/07 11:09:43;;;;;;;;;;;;;;;24.74;90.32;102037.25;5043992;28;19924;-81
2023/09/07 11:12:29;;;;;;;;;;;;;;;24.74;88.25;102045.38;5047312;28;20002;-82
2023/09/07 11:15:15;;;;;;;;;;;;;;;24.76;89.39;102030.72;5044384;28;20583;-82
2023/09/07 11:18:05;;;;;;;;;;;;;;;24.79;88.51;102027.72;5066566;28;20054;-82
2023/09/07 11:20:51;;;;;;;;;;;;;;;24.80;87.95;102031.34;5065660;28;19931;-86
2023/09/07 11:23:40;;;;;;;;;;;;;;;24.86;88.88;102030.78;5026545;28;19977;-84
2023/09/07 11:26:26;;;;;;;;;;;;;;;24.85;88.57;102031.78;5056760;28;19928;-85
2023/09/07 11:29:22;;;;;;;;;;;;;;;24.89;88.06;102026.97;5061106;28;19932;-84
2023/09/07 11:32:11;;;;;;;;;;;;;;;24.91;86.29;102033.97;5035184;28;20380;-85
2023/09/07 11:34:59;;;;;;;;;;;;;;;25.01;87.83;102033.97;5067013;28;19920;-83
2023/09/07 11:37:51;;;;;;;;;;;;;;;25.04;87.20;102031.00;5049644;28;20402;-82
2023/09/07 11:40:47;;;;;;;;;;;;;;;25.08;86.52;102029.75;5056747;28;19981;-85
2023/09/07 11:43:35;;;;;;;;;;;;;;;25.14;86.82;102022.03;5056036;28;20378;-82
2023/09/07 11:46:21;;;;;;;;;;;;;;;25.19;87.08;102025.19;5068559;28;20018;-81
2023/09/07 11:49:08;;;;;;;;;;;;;;;25.25;85.13;102015.66;5070292;28;20790;-82
2023/09/07 11:51:54;;;;;;;;;;;;;;;25.31;86.21;102023.22;5062931;28;19925;-83
2023/09/07 11:54:40;;;;;;;;;;;;;;;25.29;86.22;102017.09;5041720;28;19924;-84
2023/09/07 11:57:25;;;;;;;;;;;;;;;25.24;86.95;102014.81;5070805;28;19995;-82
2023/09/07 12:00:11;;;;;;;;;;;;;;;25.29;85.04;102009.84;5039360;28;19930;-83
2023/09/07 12:02:58;;;;;;;;;;;;;;;25.37;85.36;102011.84;5051434;28;20348;-82
2023/09/07 12:05:44;;;;;;;;;;;;;;;25.40;84.09;101992.59;5036053;28;19931;-81
2023/09/07 12:08:30;;;;;;;;;;;;;;;25.45;85.62;102000.31;5064144;28;19928;-86
2023/09/07 12:11:16;;;;;;;;;;;;;;;25.45;84.63;101990.31;5070310;28;19933;-88
2023/09/07 12:14:01;;;;;;;;;;;;;;;25.49;83.71;101982.78;5070278;28;19924;-86
2023/09/07 12:16:53;;;;;;;;;;;;;;;25.56;82.37;101978.53;5068134;28;19928;-84
2023/09/07 12:19:42;;;;;;;;;;;;;;;25.66;83.61;101983.09;5068599;28;19934;-82
2023/09/07 12:22:27;;;;;;;;;;;;;;;25.66;81.55;101977.69;5061894;28;19924;-82
2023/09/07 12:25:13;;;;;;;;;;;;;;;25.60;82.27;101985.38;5067895;28;19970;-81
2023/09/07 12:27:59;;;;;;;;;;;;;;;25.59;84.06;101977.38;5062453;28;19929;-81
2023/09/07 12:30:45;;;;;;;;;;;;;;;25.59;82.84;101978.25;5067135;28;20379;-81
2023/09/07 12:33:32;;;;;;;;;;;;;;;25.62;83.08;101972.53;5067905;28;20431;-80
2023/09/07 12:36:18;;;;;;;;;;;;;;;25.76;81.84;101975.81;5068752;28;20865;-80
2023/09/07 12:39:06;;;;;;;;;;;;;;;25.78;81.09;101976.53;5067600;28;20397;-81
2023/09/07 12:41:52;;;;;;;;;;;;;;;25.79;81.72;101966.53;5066209;28;19980;-82
2023/09/07 12:44:38;;;;;;;;;;;;;;;25.77;81.17;101966.69;5065551;28;19997;-82
2023/09/07 12:47:23;;;;;;;;;;;;;;;25.75;81.92;101963.25;5066616;28;19933;-81
2023/09/07 12:50:15;;;;;;;;;;;;;;;25.78;81.45;101971.13;5032955;28;19939;-82
2023/09/07 12:53:00;;;;;;;;;;;;;;;25.82;78.33;101967.09;5067259;28;19928;-82
2023/09/07 12:55:46;;;;;;;;;;;;;;;25.90;79.87;101969.09;5063853;28;19954;-85
2023/09/07 12:58:31;;;;;;;;;;;;;;;25.87;77.64;101962.09;5050585;28;19935;-81
2023/09/07 13:01:18;;;;;;;;;;;;;;;25.85;74.75;101960.53;5063163;28;19929;-83
2023/09/07 13:04:03;;;;;;;;;;;;;;;25.92;78.29;101966.25;5066084;28;20018;-80
2023/09/07 13:06:49;;;;;;;;;;;;;;;25.88;79.91;101961.09;5065808;28;20429;-82
2023/09/07 13:09:35;;;;;;;;;;;;;;;25.88;80.05;101950.25;5045287;28;22028;-81
2023/09/07 13:12:20;;;;;;;;;;;;;;;25.90;78.57;101947.41;5043889;28;19967;-84
2023/09/07 13:15:06;;;;;;;;;;;;;;;25.96;78.28;101956.81;5064826;28;19940;-82
2023/09/07 13:17:52;;;;;;;;;;;;;;;25.96;78.96;101945.94;5042153;28;19929;-82
2023/09/07 13:20:38;;;;;;;;;;;;;;;25.96;79.49;101941.41;5042478;28;19924;-82
2023/09/07 13:23:24;;;;;;;;;;;;;;;26.00;79.07;101937.41;5036819;28;20300;-82
2023/09/07 13:26:09;;;;;;;;;;;;;;;26.03;76.74;101934.38;5065577;28;19984;-85
2023/09/07 13:28:55;;;;;;;;;;;;;;;26.10;77.66;101931.94;5064479;28;19924;-83
2023/09/07 13:31:40;;;;;;;;;;;;;;;26.08;76.82;101927.69;5056058;28;19928;-84
2023/09/07 13:34:26;;;;;;;;;;;;;;;26.08;75.87;101920.38;5054154;28;19993;-83
2023/09/07 13:37:15;;;;;;;;;;;;;;;26.07;77.01;101921.38;5035105;28;21872;-84
2023/09/07 13:40:03;;;;;;;;;;;;;;;26.05;77.79;101915.25;5044160;28;19924;-82
2023/09/07 13:42:51;;;;;;;;;;;;;;;26.09;77.36;101915.81;5037870;28;19924;-83
2023/09/07 13:45:37;;;;;;;;;;;;;;;26.13;78.23;101903.66;5064890;28;20010;-83
2023/09/07 13:48:22;;;;;;;;;;;;;;;26.20;79.06;101909.38;5063808;28;19987;-83
2023/09/07 13:51:08;;;;;;;;;;;;;;;26.23;79.08;101909.09;5064890;28;19928;-83
2023/09/07 13:53:56;;;;;;;;;;;;;;;26.21;77.19;101903.78;5065933;28;19928;-83
2023/09/07 13:56:44;;;;;;;;;;;;;;;26.26;76.32;101908.81;5043138;28;20690;-81
2023/09/07 13:59:32;;;;;;;;;;;;;;;26.29;74.42;101908.50;5056186;28;19932;-84
2023/09/07 14:02:18;;;;;;;;;;;;;;;26.30;74.99;101904.78;5056066;28;19932;-84
2023/09/07 14:05:04;;;;;;;;;;;;;;;26.31;73.61;101892.94;5064261;28;19969;-83
2023/09/07 14:07:50;;;;;;;;;;;;;;;26.37;74.33;101895.03;5064499;28;19927;-82
2023/09/07 14:10:36;;;;;;;;;;;;;;;26.38;71.96;101901.31;5064622;28;19988;-82